sensor_id;sensor_type;location;lat;lon;timestamp;P1;durP1;ratioP1;P2;durP2;ratioP2
52854;SDS011;38719;51.418;7.286;2023-05-14T00:01:52;17.55;;;10.45;;
52854;SDS011;38719;51.418;7.286;2023-05-14T00:04:20;14.70;;;10.30;;
52854;SDS011;38719;51.418;7.286;2023-05-14T00:06:48;14.43;;;9.27;;
52854;SDS011;38719;51.418;7.286;2023-05-14T00:09:17;14.23;;;10.15;;
52854;SDS011;38719;51.418;7.286;2023-05-14T00:11:45;12.95;;;10.35;;
52854;SDS011;38719;51.418;7.286;2023-05-14T00:14:12;16.33;;;10.52;;
52854;SDS011;38719;51.418;7.286;2023-05-14T00:16:40;14.68;;;11.57;;
52854;SDS011;38719;51.418;7.286;2023-05-14T00:19:08;15.13;;;10.82;;
52854;SDS011;38719;51.418;7.286;2023-05-14T00:21:36;13.85;;;10.73;;
52854;SDS011;38719;51.418;7.286;2023-05-14T00:24:04;22.98;;;12.02;;
52854;SDS011;38719;51.418;7.286;2023-05-14T00:26:33;13.80;;;10.95;;
52854;SDS011;38719;51.418;7.286;2023-05-14T00:29:01;14.77;;;10.88;;
52854;SDS011;38719;51.418;7.286;2023-05-14T00:31:28;17.23;;;10.30;;
52854;SDS011;38719;51.418;7.286;2023-05-14T00:33:56;16.85;;;10.93;;
52854;SDS011;38719;51.418;7.286;2023-05-14T00:36:23;14.93;;;10.88;;
52854;SDS011;38719;51.418;7.286;2023-05-14T00:38:51;14.68;;;9.90;;
52854;SDS011;38719;51.418;7.286;2023-05-14T00:41:19;18.38;;;10.65;;
52854;SDS011;38719;51.418;7.286;2023-05-14T00:43:48;13.93;;;10.80;;
52854;SDS011;38719;51.418;7.286;2023-05-14T00:46:15;15.77;;;10.70;;
52854;SDS011;38719;51.418;7.286;2023-05-14T00:48:43;22.08;;;11.05;;
52854;SDS011;38719;51.418;7.286;2023-05-14T00:51:11;14.05;;;10.95;;
52854;SDS011;38719;51.418;7.286;2023-05-14T00:53:38;15.82;;;11.27;;
52854;SDS011;38719;51.418;7.286;2023-05-14T00:56:06;12.77;;;10.57;;
52854;SDS011;38719;51.418;7.286;2023-05-14T00:58:34;14.25;;;11.40;;
52854;SDS011;38719;51.418;7.286;2023-05-14T01:01:03;15.20;;;11.23;;
52854;SDS011;38719;51.418;7.286;2023-05-14T01:03:30;15.40;;;11.90;;
52854;SDS011;38719;51.418;7.286;2023-05-14T01:06:00;16.85;;;11.55;;
52854;SDS011;38719;51.418;7.286;2023-05-14T01:08:35;16.27;;;11.43;;
52854;SDS011;38719;51.418;7.286;2023-05-14T01:11:15;18.73;;;11.10;;
52854;SDS011;38719;51.418;7.286;2023-05-14T01:13:50;17.55;;;12.10;;
52854;SDS011;38719;51.418;7.286;2023-05-14T01:16:26;16.15;;;11.43;;
52854;SDS011;38719;51.418;7.286;2023-05-14T01:18:55;16.02;;;11.43;;
52854;SDS011;38719;51.418;7.286;2023-05-14T01:21:32;18.55;;;11.82;;
52854;SDS011;38719;51.418;7.286;2023-05-14T01:24:02;15.25;;;11.30;;
52854;SDS011;38719;51.418;7.286;2023-05-14T01:26:30;16.75;;;11.32;;
52854;SDS011;38719;51.418;7.286;2023-05-14T01:29:00;12.93;;;10.80;;
52854;SDS011;38719;51.418;7.286;2023-05-14T01:31:30;14.95;;;11.35;;
52854;SDS011;38719;51.418;7.286;2023-05-14T01:37:49;13.03;;;10.30;;
52854;SDS011;38719;51.418;7.286;2023-05-14T01:40:19;12.98;;;9.65;;
52854;SDS011;38719;51.418;7.286;2023-05-14T01:42:47;16.08;;;11.00;;
52854;SDS011;38719;51.418;7.286;2023-05-14T01:45:16;16.17;;;10.90;;
52854;SDS011;38719;51.418;7.286;2023-05-14T01:47:46;16.52;;;11.75;;
52854;SDS011;38719;51.418;7.286;2023-05-14T01:50:14;20.00;;;11.35;;
52854;SDS011;38719;51.418;7.286;2023-05-14T01:52:41;17.70;;;12.13;;
52854;SDS011;38719;51.418;7.286;2023-05-14T01:55:10;16.42;;;11.75;;
52854;SDS011;38719;51.418;7.286;2023-05-14T01:57:38;15.85;;;11.93;;
52854;SDS011;38719;51.418;7.286;2023-05-14T02:00:06;20.25;;;11.07;;
52854;SDS011;38719;51.418;7.286;2023-05-14T02:02:34;14.85;;;11.35;;
52854;SDS011;38719;51.418;7.286;2023-05-14T02:05:02;19.02;;;12.20;;
52854;SDS011;38719;51.418;7.286;2023-05-14T02:07:32;16.52;;;11.60;;
52854;SDS011;38719;51.418;7.286;2023-05-14T02:10:00;18.58;;;11.02;;
52854;SDS011;38719;51.418;7.286;2023-05-14T02:12:29;17.77;;;11.63;;
52854;SDS011;38719;51.418;7.286;2023-05-14T02:14:56;16.45;;;11.07;;
52854;SDS011;38719;51.418;7.286;2023-05-14T02:17:24;18.05;;;11.65;;
52854;SDS011;38719;51.418;7.286;2023-05-14T02:19:52;18.95;;;11.63;;
52854;SDS011;38719;51.418;7.286;2023-05-14T02:22:20;16.98;;;11.95;;
52854;SDS011;38719;51.418;7.286;2023-05-14T02:24:47;18.17;;;10.95;;
52854;SDS011;38719;51.418;7.286;2023-05-14T02:27:16;14.45;;;11.70;;
52854;SDS011;38719;51.418;7.286;2023-05-14T02:29:45;16.05;;;11.55;;
52854;SDS011;38719;51.418;7.286;2023-05-14T02:32:13;14.85;;;11.35;;
52854;SDS011;38719;51.418;7.286;2023-05-14T02:34:40;16.63;;;11.60;;
52854;SDS011;38719;51.418;7.286;2023-05-14T02:37:08;16.35;;;11.10;;
52854;SDS011;38719;51.418;7.286;2023-05-14T02:39:35;19.38;;;11.75;;
52854;SDS011;38719;51.418;7.286;2023-05-14T02:42:03;15.30;;;11.38;;
52854;SDS011;38719;51.418;7.286;2023-05-14T02:44:32;18.95;;;10.85;;
52854;SDS011;38719;51.418;7.286;2023-05-14T02:47:00;13.30;;;10.90;;
52854;SDS011;38719;51.418;7.286;2023-05-14T02:49:28;16.35;;;11.00;;
52854;SDS011;38719;51.418;7.286;2023-05-14T02:51:56;15.10;;;11.25;;
52854;SDS011;38719;51.418;7.286;2023-05-14T02:54:25;18.73;;;11.63;;
52854;SDS011;38719;51.418;7.286;2023-05-14T02:56:53;16.00;;;11.02;;
52854;SDS011;38719;51.418;7.286;2023-05-14T02:59:21;14.15;;;11.38;;
52854;SDS011;38719;51.418;7.286;2023-05-14T03:01:50;15.27;;;10.30;;
52854;SDS011;38719;51.418;7.286;2023-05-14T03:04:20;16.70;;;10.40;;
52854;SDS011;38719;51.418;7.286;2023-05-14T03:06:47;12.50;;;10.73;;
52854;SDS011;38719;51.418;7.286;2023-05-14T03:09:14;18.10;;;11.32;;
52854;SDS011;38719;51.418;7.286;2023-05-14T03:11:42;13.15;;;10.45;;
52854;SDS011;38719;51.418;7.286;2023-05-14T03:14:10;16.80;;;10.63;;
52854;SDS011;38719;51.418;7.286;2023-05-14T03:16:37;13.18;;;11.25;;
52854;SDS011;38719;51.418;7.286;2023-05-14T03:19:07;15.40;;;11.50;;
52854;SDS011;38719;51.418;7.286;2023-05-14T03:21:36;13.32;;;10.73;;
52854;SDS011;38719;51.418;7.286;2023-05-14T03:24:04;13.55;;;10.55;;
52854;SDS011;38719;51.418;7.286;2023-05-14T03:26:32;13.32;;;10.43;;
52854;SDS011;38719;51.418;7.286;2023-05-14T03:28:59;11.50;;;10.30;;
52854;SDS011;38719;51.418;7.286;2023-05-14T03:31:28;16.73;;;11.10;;
52854;SDS011;38719;51.418;7.286;2023-05-14T03:33:56;12.82;;;10.43;;
52854;SDS011;38719;51.418;7.286;2023-05-14T03:36:24;14.70;;;10.30;;
52854;SDS011;38719;51.418;7.286;2023-05-14T03:38:52;16.95;;;9.80;;
52854;SDS011;38719;51.418;7.286;2023-05-14T03:41:21;12.55;;;10.15;;
52854;SDS011;38719;51.418;7.286;2023-05-14T03:43:49;12.52;;;9.98;;
52854;SDS011;38719;51.418;7.286;2023-05-14T03:46:16;14.32;;;10.45;;
52854;SDS011;38719;51.418;7.286;2023-05-14T03:48:44;15.77;;;9.75;;
52854;SDS011;38719;51.418;7.286;2023-05-14T03:51:11;11.02;;;9.32;;
52854;SDS011;38719;51.418;7.286;2023-05-14T03:53:39;11.70;;;9.52;;
52854;SDS011;38719;51.418;7.286;2023-05-14T03:56:08;28.75;;;10.05;;
52854;SDS011;38719;51.418;7.286;2023-05-14T03:58:35;11.68;;;9.63;;
52854;SDS011;38719;51.418;7.286;2023-05-14T04:01:03;11.88;;;9.07;;
52854;SDS011;38719;51.418;7.286;2023-05-14T04:03:31;14.50;;;10.00;;
52854;SDS011;38719;51.418;7.286;2023-05-14T04:05:58;14.88;;;9.98;;
52854;SDS011;38719;51.418;7.286;2023-05-14T04:08:26;12.07;;;9.95;;
52854;SDS011;38719;51.418;7.286;2023-05-14T04:10:53;15.65;;;10.15;;
52854;SDS011;38719;51.418;7.286;2023-05-14T04:13:22;13.90;;;10.80;;
52854;SDS011;38719;51.418;7.286;2023-05-14T04:15:50;13.52;;;10.30;;
52854;SDS011;38719;51.418;7.286;2023-05-14T04:18:18;13.77;;;10.13;;
52854;SDS011;38719;51.418;7.286;2023-05-14T04:20:45;18.42;;;10.60;;
52854;SDS011;38719;51.418;7.286;2023-05-14T04:23:13;18.88;;;10.77;;
52854;SDS011;38719;51.418;7.286;2023-05-14T04:25:40;13.98;;;10.27;;
52854;SDS011;38719;51.418;7.286;2023-05-14T04:28:08;14.20;;;9.88;;
52854;SDS011;38719;51.418;7.286;2023-05-14T04:30:37;13.60;;;10.23;;
52854;SDS011;38719;51.418;7.286;2023-05-14T04:33:05;12.07;;;10.20;;
52854;SDS011;38719;51.418;7.286;2023-05-14T04:35:33;13.98;;;10.38;;
52854;SDS011;38719;51.418;7.286;2023-05-14T04:38:00;16.42;;;10.10;;
52854;SDS011;38719;51.418;7.286;2023-05-14T04:40:28;22.40;;;10.40;;
52854;SDS011;38719;51.418;7.286;2023-05-14T04:42:56;15.60;;;9.55;;
52854;SDS011;38719;51.418;7.286;2023-05-14T04:45:24;20.20;;;10.10;;
52854;SDS011;38719;51.418;7.286;2023-05-14T04:47:53;13.98;;;9.95;;
52854;SDS011;38719;51.418;7.286;2023-05-14T04:50:20;17.02;;;10.73;;
52854;SDS011;38719;51.418;7.286;2023-05-14T04:52:48;16.30;;;10.55;;
52854;SDS011;38719;51.418;7.286;2023-05-14T04:55:16;16.08;;;9.93;;
52854;SDS011;38719;51.418;7.286;2023-05-14T04:57:43;18.65;;;10.63;;
52854;SDS011;38719;51.418;7.286;2023-05-14T05:00:11;17.00;;;10.10;;
52854;SDS011;38719;51.418;7.286;2023-05-14T05:02:39;13.55;;;10.18;;
52854;SDS011;38719;51.418;7.286;2023-05-14T05:05:08;11.70;;;9.40;;
52854;SDS011;38719;51.418;7.286;2023-05-14T05:07:36;15.23;;;10.13;;
52854;SDS011;38719;51.418;7.286;2023-05-14T05:10:04;13.68;;;9.98;;
52854;SDS011;38719;51.418;7.286;2023-05-14T05:12:32;12.10;;;9.82;;
52854;SDS011;38719;51.418;7.286;2023-05-14T05:15:00;12.70;;;9.82;;
52854;SDS011;38719;51.418;7.286;2023-05-14T05:17:28;21.73;;;10.23;;
52854;SDS011;38719;51.418;7.286;2023-05-14T05:19:56;13.93;;;9.50;;
52854;SDS011;38719;51.418;7.286;2023-05-14T05:22:25;18.90;;;9.20;;
52854;SDS011;38719;51.418;7.286;2023-05-14T05:24:53;14.13;;;9.60;;
52854;SDS011;38719;51.418;7.286;2023-05-14T05:27:20;15.98;;;9.02;;
52854;SDS011;38719;51.418;7.286;2023-05-14T05:29:48;11.70;;;8.43;;
52854;SDS011;38719;51.418;7.286;2023-05-14T05:32:15;11.98;;;8.80;;
52854;SDS011;38719;51.418;7.286;2023-05-14T05:34:43;12.88;;;9.02;;
52854;SDS011;38719;51.418;7.286;2023-05-14T05:37:10;11.07;;;8.43;;
52854;SDS011;38719;51.418;7.286;2023-05-14T05:39:41;12.38;;;8.35;;
52854;SDS011;38719;51.418;7.286;2023-05-14T05:42:09;10.07;;;8.32;;
52854;SDS011;38719;51.418;7.286;2023-05-14T05:44:36;17.58;;;8.35;;
52854;SDS011;38719;51.418;7.286;2023-05-14T05:47:04;8.95;;;8.05;;
52854;SDS011;38719;51.418;7.286;2023-05-14T05:49:32;10.27;;;8.05;;
52854;SDS011;38719;51.418;7.286;2023-05-14T05:52:02;15.60;;;8.60;;
52854;SDS011;38719;51.418;7.286;2023-05-14T05:54:29;14.95;;;8.95;;
52854;SDS011;38719;51.418;7.286;2023-05-14T05:56:59;13.30;;;7.72;;
52854;SDS011;38719;51.418;7.286;2023-05-14T05:59:27;14.52;;;8.82;;
52854;SDS011;38719;51.418;7.286;2023-05-14T06:01:54;14.35;;;7.85;;
52854;SDS011;38719;51.418;7.286;2023-05-14T06:04:22;10.98;;;7.25;;
52854;SDS011;38719;51.418;7.286;2023-05-14T06:06:49;11.70;;;7.60;;
52854;SDS011;38719;51.418;7.286;2023-05-14T06:09:17;9.82;;;7.60;;
52854;SDS011;38719;51.418;7.286;2023-05-14T06:11:45;9.23;;;7.65;;
52854;SDS011;38719;51.418;7.286;2023-05-14T06:14:14;9.70;;;7.20;;
52854;SDS011;38719;51.418;7.286;2023-05-14T06:16:41;11.63;;;7.13;;
52854;SDS011;38719;51.418;7.286;2023-05-14T06:19:09;9.48;;;6.97;;
52854;SDS011;38719;51.418;7.286;2023-05-14T06:21:36;11.60;;;7.03;;
52854;SDS011;38719;51.418;7.286;2023-05-14T06:24:04;9.38;;;7.15;;
52854;SDS011;38719;51.418;7.286;2023-05-14T06:26:32;10.82;;;7.03;;
52854;SDS011;38719;51.418;7.286;2023-05-14T06:28:59;9.52;;;7.10;;
52854;SDS011;38719;51.418;7.286;2023-05-14T06:31:28;8.40;;;6.60;;
52854;SDS011;38719;51.418;7.286;2023-05-14T06:33:56;14.00;;;7.05;;
52854;SDS011;38719;51.418;7.286;2023-05-14T06:36:23;11.27;;;6.72;;
52854;SDS011;38719;51.418;7.286;2023-05-14T06:38:51;13.50;;;7.00;;
52854;SDS011;38719;51.418;7.286;2023-05-14T06:41:18;11.80;;;6.68;;
52854;SDS011;38719;51.418;7.286;2023-05-14T06:43:46;9.70;;;7.00;;
52854;SDS011;38719;51.418;7.286;2023-05-14T06:46:13;10.68;;;6.80;;
52854;SDS011;38719;51.418;7.286;2023-05-14T06:48:42;7.97;;;6.50;;
52854;SDS011;38719;51.418;7.286;2023-05-14T06:51:11;16.27;;;6.65;;
52854;SDS011;38719;51.418;7.286;2023-05-14T06:53:39;8.88;;;6.40;;
52854;SDS011;38719;51.418;7.286;2023-05-14T06:56:07;9.60;;;6.25;;
52854;SDS011;38719;51.418;7.286;2023-05-14T06:58:34;7.18;;;6.25;;
52854;SDS011;38719;51.418;7.286;2023-05-14T07:01:02;8.98;;;6.38;;
52854;SDS011;38719;51.418;7.286;2023-05-14T07:03:29;7.88;;;6.57;;
52854;SDS011;38719;51.418;7.286;2023-05-14T07:05:58;10.55;;;6.97;;
52854;SDS011;38719;51.418;7.286;2023-05-14T07:08:26;10.45;;;6.53;;
52854;SDS011;38719;51.418;7.286;2023-05-14T07:10:53;8.07;;;6.35;;
52854;SDS011;38719;51.418;7.286;2023-05-14T07:13:22;11.73;;;6.45;;
52854;SDS011;38719;51.418;7.286;2023-05-14T07:15:53;12.00;;;6.47;;
52854;SDS011;38719;51.418;7.286;2023-05-14T07:18:21;8.77;;;6.25;;
52854;SDS011;38719;51.418;7.286;2023-05-14T07:20:49;8.27;;;6.28;;
52854;SDS011;38719;51.418;7.286;2023-05-14T07:23:18;8.75;;;6.60;;
52854;SDS011;38719;51.418;7.286;2023-05-14T07:25:45;8.10;;;6.35;;
52854;SDS011;38719;51.418;7.286;2023-05-14T07:28:13;10.35;;;7.07;;
52854;SDS011;38719;51.418;7.286;2023-05-14T07:30:41;7.47;;;6.70;;
52854;SDS011;38719;51.418;7.286;2023-05-14T07:33:08;7.50;;;6.10;;
52854;SDS011;38719;51.418;7.286;2023-05-14T07:35:36;8.68;;;6.38;;
52854;SDS011;38719;51.418;7.286;2023-05-14T07:38:03;9.30;;;6.35;;
52854;SDS011;38719;51.418;7.286;2023-05-14T07:40:32;10.63;;;7.78;;
52854;SDS011;38719;51.418;7.286;2023-05-14T07:43:00;10.80;;;8.30;;
52854;SDS011;38719;51.418;7.286;2023-05-14T07:45:27;12.60;;;8.07;;
52854;SDS011;38719;51.418;7.286;2023-05-14T07:47:55;12.07;;;8.02;;
52854;SDS011;38719;51.418;7.286;2023-05-14T07:50:23;14.70;;;7.55;;
52854;SDS011;38719;51.418;7.286;2023-05-14T07:52:51;16.27;;;7.95;;
52854;SDS011;38719;51.418;7.286;2023-05-14T07:55:18;9.55;;;6.88;;
52854;SDS011;38719;51.418;7.286;2023-05-14T07:57:47;8.48;;;6.72;;
52854;SDS011;38719;51.418;7.286;2023-05-14T08:00:14;8.60;;;6.28;;
52854;SDS011;38719;51.418;7.286;2023-05-14T08:02:43;11.07;;;6.22;;
52854;SDS011;38719;51.418;7.286;2023-05-14T08:05:10;10.20;;;5.93;;
52854;SDS011;38719;51.418;7.286;2023-05-14T08:07:38;7.13;;;5.10;;
52854;SDS011;38719;51.418;7.286;2023-05-14T08:10:06;7.20;;;5.25;;
52854;SDS011;38719;51.418;7.286;2023-05-14T08:12:34;5.32;;;4.45;;
52854;SDS011;38719;51.418;7.286;2023-05-14T08:15:04;6.82;;;5.22;;
52854;SDS011;38719;51.418;7.286;2023-05-14T08:17:33;6.82;;;4.70;;
52854;SDS011;38719;51.418;7.286;2023-05-14T08:20:00;7.05;;;4.78;;
52854;SDS011;38719;51.418;7.286;2023-05-14T08:22:28;8.25;;;4.35;;
52854;SDS011;38719;51.418;7.286;2023-05-14T08:24:55;6.72;;;4.50;;
52854;SDS011;38719;51.418;7.286;2023-05-14T08:27:23;6.13;;;3.85;;
52854;SDS011;38719;51.418;7.286;2023-05-14T08:29:51;6.40;;;3.90;;
52854;SDS011;38719;51.418;7.286;2023-05-14T08:32:20;4.95;;;3.85;;
52854;SDS011;38719;51.418;7.286;2023-05-14T08:34:49;3.97;;;3.58;;
52854;SDS011;38719;51.418;7.286;2023-05-14T08:37:17;3.83;;;3.42;;
52854;SDS011;38719;51.418;7.286;2023-05-14T08:39:44;3.80;;;3.45;;
52854;SDS011;38719;51.418;7.286;2023-05-14T08:42:12;3.80;;;3.08;;
52854;SDS011;38719;51.418;7.286;2023-05-14T08:44:43;4.07;;;2.80;;
52854;SDS011;38719;51.418;7.286;2023-05-14T08:47:14;4.97;;;3.10;;
52854;SDS011;38719;51.418;7.286;2023-05-14T08:49:46;3.40;;;3.10;;
52854;SDS011;38719;51.418;7.286;2023-05-14T08:52:18;7.43;;;3.30;;
52854;SDS011;38719;51.418;7.286;2023-05-14T08:54:46;6.00;;;2.90;;
52854;SDS011;38719;51.418;7.286;2023-05-14T08:57:16;4.93;;;3.00;;
52854;SDS011;38719;51.418;7.286;2023-05-14T08:59:46;4.65;;;2.90;;
52854;SDS011;38719;51.418;7.286;2023-05-14T09:02:13;3.80;;;3.03;;
52854;SDS011;38719;51.418;7.286;2023-05-14T09:04:42;3.88;;;2.80;;
52854;SDS011;38719;51.418;7.286;2023-05-14T09:07:12;4.05;;;2.85;;
52854;SDS011;38719;51.418;7.286;2023-05-14T09:09:39;4.10;;;2.88;;
52854;SDS011;38719;51.418;7.286;2023-05-14T09:12:10;3.10;;;2.80;;
52854;SDS011;38719;51.418;7.286;2023-05-14T09:14:37;3.60;;;3.05;;
52854;SDS011;38719;51.418;7.286;2023-05-14T09:17:04;3.10;;;2.80;;
52854;SDS011;38719;51.418;7.286;2023-05-14T09:19:32;4.20;;;3.00;;
52854;SDS011;38719;51.418;7.286;2023-05-14T09:22:00;6.45;;;2.80;;
52854;SDS011;38719;51.418;7.286;2023-05-14T09:24:28;4.97;;;3.20;;
52854;SDS011;38719;51.418;7.286;2023-05-14T09:26:56;4.20;;;2.95;;
52854;SDS011;38719;51.418;7.286;2023-05-14T09:29:24;3.97;;;3.30;;
52854;SDS011;38719;51.418;7.286;2023-05-14T09:31:52;4.43;;;3.03;;
52854;SDS011;38719;51.418;7.286;2023-05-14T09:34:22;3.90;;;2.80;;
52854;SDS011;38719;51.418;7.286;2023-05-14T09:36:53;3.63;;;2.90;;
52854;SDS011;38719;51.418;7.286;2023-05-14T09:39:22;3.67;;;3.05;;
52854;SDS011;38719;51.418;7.286;2023-05-14T09:41:51;3.17;;;2.78;;
52854;SDS011;38719;51.418;7.286;2023-05-14T09:44:18;3.05;;;2.80;;
52854;SDS011;38719;51.418;7.286;2023-05-14T09:46:47;3.67;;;2.90;;
52854;SDS011;38719;51.418;7.286;2023-05-14T09:49:15;3.67;;;3.20;;
52854;SDS011;38719;51.418;7.286;2023-05-14T09:51:43;7.82;;;3.50;;
52854;SDS011;38719;51.418;7.286;2023-05-14T09:54:11;5.85;;;3.08;;
52854;SDS011;38719;51.418;7.286;2023-05-14T09:56:38;3.70;;;3.40;;
52854;SDS011;38719;51.418;7.286;2023-05-14T09:59:07;4.65;;;3.50;;
52854;SDS011;38719;51.418;7.286;2023-05-14T10:01:34;3.50;;;3.20;;
52854;SDS011;38719;51.418;7.286;2023-05-14T10:04:05;6.07;;;3.53;;
52854;SDS011;38719;51.418;7.286;2023-05-14T10:06:35;5.00;;;3.30;;
52854;SDS011;38719;51.418;7.286;2023-05-14T10:09:04;3.53;;;3.08;;
52854;SDS011;38719;51.418;7.286;2023-05-14T10:11:37;3.22;;;2.92;;
52854;SDS011;38719;51.418;7.286;2023-05-14T10:14:12;5.10;;;3.55;;
52854;SDS011;38719;51.418;7.286;2023-05-14T10:16:45;5.63;;;3.10;;
52854;SDS011;38719;51.418;7.286;2023-05-14T10:19:17;3.45;;;3.15;;
52854;SDS011;38719;51.418;7.286;2023-05-14T10:21:47;3.67;;;3.28;;
52854;SDS011;38719;51.418;7.286;2023-05-14T10:24:19;5.60;;;3.65;;
52854;SDS011;38719;51.418;7.286;2023-05-14T10:26:47;3.78;;;3.13;;
52854;SDS011;38719;51.418;7.286;2023-05-14T10:29:16;3.47;;;3.08;;
52854;SDS011;38719;51.418;7.286;2023-05-14T10:31:44;3.88;;;3.38;;
52854;SDS011;38719;51.418;7.286;2023-05-14T10:34:32;5.75;;;3.10;;
52854;SDS011;38719;51.418;7.286;2023-05-14T10:37:02;5.07;;;2.97;;
52854;SDS011;38719;51.418;7.286;2023-05-14T10:39:39;3.88;;;3.35;;
52854;SDS011;38719;51.418;7.286;2023-05-14T10:42:10;4.18;;;3.13;;
52854;SDS011;38719;51.418;7.286;2023-05-14T10:44:41;5.25;;;3.42;;
52854;SDS011;38719;51.418;7.286;2023-05-14T10:47:13;4.65;;;3.00;;
52854;SDS011;38719;51.418;7.286;2023-05-14T10:49:41;8.55;;;3.10;;
52854;SDS011;38719;51.418;7.286;2023-05-14T10:52:10;4.95;;;3.20;;
52854;SDS011;38719;51.418;7.286;2023-05-14T10:54:38;2.90;;;2.70;;
52854;SDS011;38719;51.418;7.286;2023-05-14T10:57:08;5.00;;;3.33;;
52854;SDS011;38719;51.418;7.286;2023-05-14T10:59:41;4.97;;;2.90;;
52854;SDS011;38719;51.418;7.286;2023-05-14T11:02:19;3.75;;;3.35;;
52854;SDS011;38719;51.418;7.286;2023-05-14T11:04:55;3.42;;;2.88;;
52854;SDS011;38719;51.418;7.286;2023-05-14T11:07:26;4.63;;;2.90;;
52854;SDS011;38719;51.418;7.286;2023-05-14T11:09:57;3.42;;;3.13;;
52854;SDS011;38719;51.418;7.286;2023-05-14T11:12:27;5.90;;;3.30;;
52854;SDS011;38719;51.418;7.286;2023-05-14T11:14:57;3.28;;;2.97;;
52854;SDS011;38719;51.418;7.286;2023-05-14T11:17:25;5.43;;;3.08;;
52854;SDS011;38719;51.418;7.286;2023-05-14T11:19:54;7.75;;;3.30;;
52854;SDS011;38719;51.418;7.286;2023-05-14T11:22:22;3.35;;;2.92;;
52854;SDS011;38719;51.418;7.286;2023-05-14T11:24:50;3.67;;;3.30;;
52854;SDS011;38719;51.418;7.286;2023-05-14T11:27:18;4.07;;;3.13;;
52854;SDS011;38719;51.418;7.286;2023-05-14T11:29:46;4.15;;;2.90;;
52854;SDS011;38719;51.418;7.286;2023-05-14T11:32:16;5.20;;;3.10;;
52854;SDS011;38719;51.418;7.286;2023-05-14T11:34:44;9.70;;;6.10;;
52854;SDS011;38719;51.418;7.286;2023-05-14T11:37:13;12.98;;;6.57;;
52854;SDS011;38719;51.418;7.286;2023-05-14T11:39:47;22.50;;;4.50;;
52854;SDS011;38719;51.418;7.286;2023-05-14T11:42:17;18.70;;;4.05;;
52854;SDS011;38719;51.418;7.286;2023-05-14T11:44:45;5.65;;;3.10;;
52854;SDS011;38719;51.418;7.286;2023-05-14T11:47:15;3.53;;;3.22;;
52854;SDS011;38719;51.418;7.286;2023-05-14T11:49:43;4.45;;;2.88;;
52854;SDS011;38719;51.418;7.286;2023-05-14T11:52:11;4.20;;;3.05;;
52854;SDS011;38719;51.418;7.286;2023-05-14T11:54:41;3.10;;;2.80;;
52854;SDS011;38719;51.418;7.286;2023-05-14T11:57:12;4.60;;;3.00;;
52854;SDS011;38719;51.418;7.286;2023-05-14T11:59:41;4.78;;;3.10;;
52854;SDS011;38719;51.418;7.286;2023-05-14T12:02:09;3.72;;;2.95;;
52854;SDS011;38719;51.418;7.286;2023-05-14T12:04:40;7.10;;;3.22;;
52854;SDS011;38719;51.418;7.286;2023-05-14T12:07:09;9.25;;;2.80;;
52854;SDS011;38719;51.418;7.286;2023-05-14T12:09:39;10.20;;;3.42;;
52854;SDS011;38719;51.418;7.286;2023-05-14T12:12:11;3.30;;;3.00;;
52854;SDS011;38719;51.418;7.286;2023-05-14T12:14:39;4.50;;;3.22;;
52854;SDS011;38719;51.418;7.286;2023-05-14T12:17:11;3.15;;;2.60;;
52854;SDS011;38719;51.418;7.286;2023-05-14T12:19:42;9.48;;;3.13;;
52854;SDS011;38719;51.418;7.286;2023-05-14T12:22:11;4.13;;;2.90;;
52854;SDS011;38719;51.418;7.286;2023-05-14T12:24:41;3.17;;;2.70;;
52854;SDS011;38719;51.418;7.286;2023-05-14T12:27:09;3.28;;;2.97;;
52854;SDS011;38719;51.418;7.286;2023-05-14T12:29:38;3.65;;;2.95;;
52854;SDS011;38719;51.418;7.286;2023-05-14T12:32:08;3.17;;;2.88;;
52854;SDS011;38719;51.418;7.286;2023-05-14T12:34:36;3.13;;;2.83;;
52854;SDS011;38719;51.418;7.286;2023-05-14T12:37:05;3.78;;;3.00;;
52854;SDS011;38719;51.418;7.286;2023-05-14T12:39:33;3.20;;;2.90;;
52854;SDS011;38719;51.418;7.286;2023-05-14T12:42:00;3.58;;;2.67;;
52854;SDS011;38719;51.418;7.286;2023-05-14T12:44:28;4.47;;;2.85;;
52854;SDS011;38719;51.418;7.286;2023-05-14T12:46:56;6.95;;;2.95;;
52854;SDS011;38719;51.418;7.286;2023-05-14T12:49:23;2.88;;;2.60;;
52854;SDS011;38719;51.418;7.286;2023-05-14T12:51:52;6.25;;;2.75;;
52854;SDS011;38719;51.418;7.286;2023-05-14T12:54:41;3.42;;;2.63;;
52854;SDS011;38719;51.418;7.286;2023-05-14T12:57:08;3.15;;;2.70;;
52854;SDS011;38719;51.418;7.286;2023-05-14T12:59:36;4.88;;;2.72;;
52854;SDS011;38719;51.418;7.286;2023-05-14T13:02:03;3.50;;;2.85;;
52854;SDS011;38719;51.418;7.286;2023-05-14T13:04:31;2.63;;;2.25;;
52854;SDS011;38719;51.418;7.286;2023-05-14T13:06:59;4.22;;;2.75;;
52854;SDS011;38719;51.418;7.286;2023-05-14T13:09:26;3.70;;;2.70;;
52854;SDS011;38719;51.418;7.286;2023-05-14T13:11:55;2.50;;;2.30;;
52854;SDS011;38719;51.418;7.286;2023-05-14T13:14:23;2.42;;;2.20;;
52854;SDS011;38719;51.418;7.286;2023-05-14T13:16:50;3.33;;;2.88;;
52854;SDS011;38719;51.418;7.286;2023-05-14T13:19:17;2.70;;;2.38;;
52854;SDS011;38719;51.418;7.286;2023-05-14T13:21:45;2.88;;;2.28;;
52854;SDS011;38719;51.418;7.286;2023-05-14T13:24:12;3.40;;;2.58;;
52854;SDS011;38719;51.418;7.286;2023-05-14T13:26:40;3.10;;;2.33;;
52854;SDS011;38719;51.418;7.286;2023-05-14T13:29:10;2.95;;;2.55;;
52854;SDS011;38719;51.418;7.286;2023-05-14T13:31:38;3.42;;;2.30;;
52854;SDS011;38719;51.418;7.286;2023-05-14T13:34:07;2.50;;;2.30;;
52854;SDS011;38719;51.418;7.286;2023-05-14T13:36:35;2.63;;;2.40;;
52854;SDS011;38719;51.418;7.286;2023-05-14T13:39:04;3.08;;;2.58;;
52854;SDS011;38719;51.418;7.286;2023-05-14T13:41:32;3.03;;;2.60;;
52854;SDS011;38719;51.418;7.286;2023-05-14T13:44:00;4.15;;;2.70;;
52854;SDS011;38719;51.418;7.286;2023-05-14T13:46:29;3.28;;;2.60;;
52854;SDS011;38719;51.418;7.286;2023-05-14T13:48:57;3.08;;;2.70;;
52854;SDS011;38719;51.418;7.286;2023-05-14T13:51:24;2.22;;;2.03;;
52854;SDS011;38719;51.418;7.286;2023-05-14T13:53:52;3.47;;;2.25;;
52854;SDS011;38719;51.418;7.286;2023-05-14T13:56:24;2.53;;;2.33;;
52854;SDS011;38719;51.418;7.286;2023-05-14T13:58:52;4.40;;;2.60;;
52854;SDS011;38719;51.418;7.286;2023-05-14T14:01:19;4.40;;;2.53;;
52854;SDS011;38719;51.418;7.286;2023-05-14T14:03:49;3.30;;;2.30;;
52854;SDS011;38719;51.418;7.286;2023-05-14T14:06:17;2.80;;;2.30;;
52854;SDS011;38719;51.418;7.286;2023-05-14T14:08:44;3.08;;;2.60;;
52854;SDS011;38719;51.418;7.286;2023-05-14T14:11:12;2.58;;;2.38;;
52854;SDS011;38719;51.418;7.286;2023-05-14T14:13:39;5.85;;;2.40;;
52854;SDS011;38719;51.418;7.286;2023-05-14T14:16:10;2.83;;;2.50;;
52854;SDS011;38719;51.418;7.286;2023-05-14T14:18:37;8.35;;;2.33;;
52854;SDS011;38719;51.418;7.286;2023-05-14T14:21:06;2.83;;;2.58;;
52854;SDS011;38719;51.418;7.286;2023-05-14T14:23:34;2.72;;;2.53;;
52854;SDS011;38719;51.418;7.286;2023-05-14T14:26:01;2.95;;;2.65;;
52854;SDS011;38719;51.418;7.286;2023-05-14T14:28:29;4.10;;;2.60;;
52854;SDS011;38719;51.418;7.286;2023-05-14T14:30:56;2.72;;;2.53;;
52854;SDS011;38719;51.418;7.286;2023-05-14T14:33:24;2.90;;;2.50;;
52854;SDS011;38719;51.418;7.286;2023-05-14T14:35:52;2.78;;;2.47;;
52854;SDS011;38719;51.418;7.286;2023-05-14T14:38:21;4.95;;;2.20;;
52854;SDS011;38719;51.418;7.286;2023-05-14T14:40:48;2.70;;;2.35;;
52854;SDS011;38719;51.418;7.286;2023-05-14T14:43:16;2.47;;;2.28;;
52854;SDS011;38719;51.418;7.286;2023-05-14T14:45:43;2.40;;;2.20;;
52854;SDS011;38719;51.418;7.286;2023-05-14T14:48:26;2.63;;;2.35;;
52854;SDS011;38719;51.418;7.286;2023-05-14T14:50:56;2.50;;;2.30;;